createdAt,value
2022-08-26T00:05:37.502Z,99.90
2022-08-26T00:15:40.201Z,99.90
2022-08-26T00:25:43.831Z,99.90
2022-08-26T00:35:46.469Z,99.90
2022-08-26T00:45:55.535Z,99.90
2022-08-26T00:55:59.484Z,99.90
2022-08-26T01:06:03.431Z,99.90
2022-08-26T01:16:10.694Z,99.90
2022-08-26T01:26:21.719Z,99.90
2022-08-26T01:36:23.825Z,99.90
2022-08-26T01:46:29.645Z,99.90
2022-08-26T01:56:33.420Z,99.90
2022-08-26T02:06:40.296Z,99.90
2022-08-26T02:16:45.384Z,99.90
2022-08-26T02:26:49.044Z,99.90
2022-08-26T02:36:50.994Z,99.90
2022-08-26T02:46:54.760Z,99.90
2022-08-26T02:56:56.785Z,99.90
2022-08-26T03:07:00.722Z,99.90
2022-08-26T03:17:03.678Z,99.90
2022-08-26T03:27:07.541Z,99.90
2022-08-26T03:37:09.641Z,99.90
2022-08-26T03:47:13.067Z,99.90
2022-08-26T03:57:15.021Z,99.90
2022-08-26T04:07:20.106Z,99.90
2022-08-26T04:17:24.971Z,99.90
2022-08-26T04:27:28.504Z,99.90
2022-08-26T04:37:31.316Z,99.90
2022-08-26T04:47:36.136Z,99.90
2022-08-26T04:57:38.562Z,99.90
2022-08-26T05:07:42.596Z,99.90
2022-08-26T05:17:44.516Z,99.90
2022-08-26T05:27:48.353Z,99.90
2022-08-26T05:37:50.574Z,99.90
2022-08-26T05:47:54.002Z,99.90
2022-08-26T05:57:55.927Z,99.90
2022-08-26T06:07:59.339Z,99.90
2022-08-26T06:18:01.377Z,99.90
2022-08-26T06:28:05.610Z,99.90
2022-08-26T06:38:08.778Z,99.90
2022-08-26T06:48:12.722Z,99.90
2022-08-26T06:58:16.140Z,99.90
2022-08-26T07:08:19.514Z,99.90
2022-08-26T07:18:21.793Z,99.90
2022-08-26T07:28:26.406Z,99.90
2022-08-26T07:38:28.448Z,99.90
2022-08-26T07:48:35.242Z,99.90
2022-08-26T07:58:37.808Z,99.90
2022-08-26T08:08:41.137Z,99.90
2022-08-26T08:18:43.084Z,99.90
2022-08-26T08:28:47.959Z,99.90
2022-08-26T08:38:50.339Z,99.90
2022-08-26T08:48:57.183Z,99.90
2022-08-26T08:59:11.806Z,99.90
2022-08-26T09:09:23.710Z,97.30
2022-08-26T09:19:33.405Z,98.40
2022-08-26T09:40:56.295Z,90.70
2022-08-26T09:51:03.797Z,90.60
2022-08-26T10:01:14.335Z,91.40
2022-08-26T10:11:22.309Z,90.40
2022-08-26T10:21:31.148Z,83.70
2022-08-26T10:31:40.150Z,81.30
2022-08-26T10:41:49.022Z,81.60
2022-08-26T10:51:59.379Z,79.70
2022-08-26T11:02:07.227Z,80.40
2022-08-26T11:12:10.343Z,79.30
2022-08-26T11:22:26.311Z,83.60
2022-08-26T11:32:49.688Z,80.00
2022-08-26T11:42:56.886Z,80.10
2022-08-26T11:53:03.091Z,83.50
2022-08-26T12:03:08.631Z,84.00
2022-08-26T12:13:20.464Z,82.60
2022-08-26T12:23:36.661Z,84.30
2022-08-26T12:33:38.889Z,85.20
2022-08-26T12:43:44.724Z,85.70
2022-08-26T12:53:46.745Z,84.20
2022-08-26T13:03:50.450Z,85.80
2022-08-26T13:13:55.802Z,84.20
2022-08-26T13:24:02.743Z,83.80
2022-08-26T13:34:05.170Z,81.60
2022-08-26T13:44:08.927Z,80.40
2022-08-26T13:54:10.959Z,80.30
2022-08-26T14:04:14.352Z,81.10
2022-08-26T14:14:16.395Z,81.50
2022-08-26T14:24:19.865Z,79.50
2022-08-26T14:35:07.897Z,81.80
2022-08-26T14:45:15.756Z,79.10
2022-08-26T14:55:19.983Z,79.60
2022-08-26T15:05:23.337Z,80.10
2022-08-26T15:15:25.390Z,80.10
2022-08-26T15:25:28.820Z,79.70
2022-08-26T15:35:32.980Z,78.30
2022-08-26T15:45:39.034Z,78.20
2022-08-26T15:55:41.101Z,77.70
2022-08-26T16:05:44.960Z,78.30
2022-08-26T16:15:47.684Z,79.90
2022-08-26T16:25:52.874Z,81.20
2022-08-26T16:35:54.860Z,81.00
2022-08-26T16:45:58.357Z,81.30
2022-08-26T16:56:00.483Z,82.90
2022-08-26T17:06:04.252Z,82.30
2022-08-26T17:27:46.191Z,83.10
2022-08-26T17:37:50.863Z,84.10
2022-08-26T17:47:56.042Z,85.90
2022-08-26T17:57:58.034Z,86.50
2022-08-26T18:19:57.823Z,88.40
2022-08-26T18:30:01.324Z,89.20
2022-08-26T18:40:04.554Z,90.20
2022-08-26T18:50:09.293Z,90.20
2022-08-26T19:00:36.423Z,90.40
2022-08-26T19:10:40.503Z,90.10
2022-08-26T19:20:46.726Z,90.90
2022-08-26T19:30:53.104Z,91.20
2022-08-26T19:52:18.246Z,96.80
2022-08-26T20:02:20.350Z,97.40
2022-08-26T20:12:54.736Z,98.90
2022-08-26T20:22:57.002Z,99.00
2022-08-26T20:33:00.404Z,99.90
2022-08-26T20:43:02.405Z,99.90
2022-08-26T20:53:05.887Z,99.90
2022-08-26T21:03:07.924Z,99.90
2022-08-26T21:13:11.934Z,99.90
2022-08-26T21:23:13.910Z,99.90
2022-08-26T21:33:28.959Z,99.90
2022-08-26T21:43:46.632Z,99.90
2022-08-26T21:53:50.746Z,99.90
2022-08-26T22:03:53.312Z,99.90
2022-08-26T22:13:56.700Z,99.90
2022-08-26T22:23:58.866Z,99.90
2022-08-26T22:34:02.286Z,99.90
2022-08-26T22:44:04.495Z,99.90
2022-08-26T22:54:07.896Z,99.90
2022-08-26T23:04:10.109Z,99.90
2022-08-26T23:14:13.608Z,99.90
2022-08-26T23:24:16.075Z,99.90
2022-08-26T23:34:19.486Z,99.90
2022-08-26T23:44:21.608Z,99.90
2022-08-26T23:54:25.087Z,99.90
